sensor_id;sensor_type;location;lat;lon;timestamp;pressure;altitude;pressure_sealevel;temperature;humidity
21276;BME280;36472;52.170;20.884;2023-05-10T00:00:10;101109.34;;;9.72;50.01
21276;BME280;36472;52.170;20.884;2023-05-10T00:02:59;101105.91;;;9.70;49.78
21276;BME280;36472;52.170;20.884;2023-05-10T00:05:28;101100.75;;;9.68;49.82
21276;BME280;36472;52.170;20.884;2023-05-10T00:07:58;101095.66;;;9.65;50.08
21276;BME280;36472;52.170;20.884;2023-05-10T00:10:27;101094.19;;;9.60;50.37
21276;BME280;36472;52.170;20.884;2023-05-10T00:12:56;101091.75;;;9.57;50.41
21276;BME280;36472;52.170;20.884;2023-05-10T00:15:25;101085.63;;;9.56;50.09
21276;BME280;36472;52.170;20.884;2023-05-10T00:17:54;101086.56;;;9.55;49.90
21276;BME280;36472;52.170;20.884;2023-05-10T00:20:23;101080.53;;;9.53;50.08
21276;BME280;36472;52.170;20.884;2023-05-10T00:22:51;101086.09;;;9.47;50.32
21276;BME280;36472;52.170;20.884;2023-05-10T00:25:22;101079.13;;;9.46;50.22
21276;BME280;36472;52.170;20.884;2023-05-10T00:27:50;101077.38;;;9.46;50.12
21276;BME280;36472;52.170;20.884;2023-05-10T00:30:20;101082.63;;;9.46;50.19
21276;BME280;36472;52.170;20.884;2023-05-10T00:32:48;101071.41;;;9.43;50.36
21276;BME280;36472;52.170;20.884;2023-05-10T00:35:19;101072.34;;;9.42;50.12
21276;BME280;36472;52.170;20.884;2023-05-10T00:37:49;101068.97;;;9.40;50.16
21276;BME280;36472;52.170;20.884;2023-05-10T00:40:18;101072.56;;;9.37;50.07
21276;BME280;36472;52.170;20.884;2023-05-10T00:42:51;101068.34;;;9.34;50.01
21276;BME280;36472;52.170;20.884;2023-05-10T00:45:21;101069.41;;;9.30;50.05
21276;BME280;36472;52.170;20.884;2023-05-10T00:47:51;101072.88;;;9.31;50.35
21276;BME280;36472;52.170;20.884;2023-05-10T00:50:23;101074.56;;;9.32;50.56
21276;BME280;36472;52.170;20.884;2023-05-10T00:52:52;101067.53;;;9.32;49.99
21276;BME280;36472;52.170;20.884;2023-05-10T00:55:21;101060.75;;;9.28;49.59
21276;BME280;36472;52.170;20.884;2023-05-10T00:57:53;101066.63;;;9.33;49.86
21276;BME280;36472;52.170;20.884;2023-05-10T01:00:22;101065.16;;;9.28;49.85
21276;BME280;36472;52.170;20.884;2023-05-10T01:02:53;101065.25;;;9.26;50.18
21276;BME280;36472;52.170;20.884;2023-05-10T01:05:22;101068.84;;;9.24;49.73
21276;BME280;36472;52.170;20.884;2023-05-10T01:07:51;101053.03;;;9.25;49.59
21276;BME280;36472;52.170;20.884;2023-05-10T01:10:20;101061.91;;;9.23;49.98
21276;BME280;36472;52.170;20.884;2023-05-10T01:12:51;101056.59;;;9.24;50.18
21276;BME280;36472;52.170;20.884;2023-05-10T01:15:21;101057.44;;;9.25;50.23
21276;BME280;36472;52.170;20.884;2023-05-10T01:17:52;101065.53;;;9.20;49.97
21276;BME280;36472;52.170;20.884;2023-05-10T01:20:21;101056.75;;;9.21;50.47
21276;BME280;36472;52.170;20.884;2023-05-10T01:23:34;101058.88;;;9.13;50.40
21276;BME280;36472;52.170;20.884;2023-05-10T01:26:30;101046.69;;;9.12;50.44
21276;BME280;36472;52.170;20.884;2023-05-10T01:29:37;101049.47;;;9.09;50.50
21276;BME280;36472;52.170;20.884;2023-05-10T01:32:36;101050.41;;;9.08;50.32
21276;BME280;36472;52.170;20.884;2023-05-10T01:35:17;101058.47;;;9.03;50.89
21276;BME280;36472;52.170;20.884;2023-05-10T01:37:59;101055.94;;;9.02;50.80
21276;BME280;36472;52.170;20.884;2023-05-10T01:40:37;101055.16;;;8.99;50.74
21276;BME280;36472;52.170;20.884;2023-05-10T01:43:17;101051.00;;;8.95;51.03
21276;BME280;36472;52.170;20.884;2023-05-10T01:45:58;101051.13;;;8.92;50.52
21276;BME280;36472;52.170;20.884;2023-05-10T01:48:33;101047.06;;;8.87;50.75
21276;BME280;36472;52.170;20.884;2023-05-10T01:51:03;101046.34;;;8.83;50.95
21276;BME280;36472;52.170;20.884;2023-05-10T01:53:37;101041.88;;;8.85;51.06
21276;BME280;36472;52.170;20.884;2023-05-10T01:56:08;101032.63;;;8.78;50.76
21276;BME280;36472;52.170;20.884;2023-05-10T01:58:43;101044.84;;;8.77;51.12
21276;BME280;36472;52.170;20.884;2023-05-10T02:01:14;101036.16;;;8.77;51.17
21276;BME280;36472;52.170;20.884;2023-05-10T02:03:47;101041.44;;;8.75;51.25
21276;BME280;36472;52.170;20.884;2023-05-10T02:06:20;101040.63;;;8.75;51.24
21276;BME280;36472;52.170;20.884;2023-05-10T02:08:52;101029.25;;;8.74;51.07
21276;BME280;36472;52.170;20.884;2023-05-10T02:11:23;101038.13;;;8.72;51.36
21276;BME280;36472;52.170;20.884;2023-05-10T02:13:55;101035.59;;;8.70;51.09
21276;BME280;36472;52.170;20.884;2023-05-10T02:16:28;101040.97;;;8.67;51.41
21276;BME280;36472;52.170;20.884;2023-05-10T02:19:02;101041.34;;;8.59;51.19
21276;BME280;36472;52.170;20.884;2023-05-10T02:21:32;101029.22;;;8.57;51.69
21276;BME280;36472;52.170;20.884;2023-05-10T02:24:04;101025.69;;;8.58;51.70
21276;BME280;36472;52.170;20.884;2023-05-10T02:26:35;101028.22;;;8.59;51.76
21276;BME280;36472;52.170;20.884;2023-05-10T02:29:06;101035.09;;;8.62;51.74
21276;BME280;36472;52.170;20.884;2023-05-10T02:31:36;101033.47;;;8.59;51.65
21276;BME280;36472;52.170;20.884;2023-05-10T02:34:08;101028.38;;;8.56;51.90
21276;BME280;36472;52.170;20.884;2023-05-10T02:36:39;101023.34;;;8.52;52.05
21276;BME280;36472;52.170;20.884;2023-05-10T02:39:13;101032.22;;;8.49;52.30
21276;BME280;36472;52.170;20.884;2023-05-10T02:41:45;101033.31;;;8.43;52.49
21276;BME280;36472;52.170;20.884;2023-05-10T02:44:17;101032.66;;;8.38;52.80
21276;BME280;36472;52.170;20.884;2023-05-10T02:46:47;101026.63;;;8.36;52.55
21276;BME280;36472;52.170;20.884;2023-05-10T02:49:18;101033.00;;;8.31;53.29
21276;BME280;36472;52.170;20.884;2023-05-10T02:51:56;101027.91;;;8.28;53.11
21276;BME280;36472;52.170;20.884;2023-05-10T02:54:33;101027.13;;;8.26;53.39
21276;BME280;36472;52.170;20.884;2023-05-10T02:57:07;101027.00;;;8.29;53.86
21276;BME280;36472;52.170;20.884;2023-05-10T02:59:38;101027.22;;;8.24;53.34
21276;BME280;36472;52.170;20.884;2023-05-10T03:02:07;101039.47;;;8.23;53.59
21276;BME280;36472;52.170;20.884;2023-05-10T03:04:38;101033.50;;;8.20;53.73
21276;BME280;36472;52.170;20.884;2023-05-10T03:07:08;101037.03;;;8.19;54.22
21276;BME280;36472;52.170;20.884;2023-05-10T03:09:37;101033.72;;;8.15;53.99
21276;BME280;36472;52.170;20.884;2023-05-10T03:12:15;101033.72;;;8.15;53.80
21276;BME280;36472;52.170;20.884;2023-05-10T03:14:56;101035.50;;;8.15;54.08
21276;BME280;36472;52.170;20.884;2023-05-10T03:17:36;101036.31;;;8.15;54.24
21276;BME280;36472;52.170;20.884;2023-05-10T03:20:15;101031.22;;;8.12;53.79
21276;BME280;36472;52.170;20.884;2023-05-10T03:22:50;101032.28;;;8.08;54.33
21276;BME280;36472;52.170;20.884;2023-05-10T03:25:21;101034.97;;;8.07;54.99
21276;BME280;36472;52.170;20.884;2023-05-10T03:27:53;101032.41;;;8.05;54.97
21276;BME280;36472;52.170;20.884;2023-05-10T03:30:24;101026.25;;;8.06;54.53
21276;BME280;36472;52.170;20.884;2023-05-10T03:32:54;101026.47;;;8.01;54.58
21276;BME280;36472;52.170;20.884;2023-05-10T03:35:24;101030.00;;;8.00;54.41
21276;BME280;36472;52.170;20.884;2023-05-10T03:37:53;101024.69;;;8.02;55.95
21276;BME280;36472;52.170;20.884;2023-05-10T03:40:22;101029.03;;;8.03;55.82
21276;BME280;36472;52.170;20.884;2023-05-10T03:42:51;101027.97;;;8.07;56.47
21276;BME280;36472;52.170;20.884;2023-05-10T03:45:20;101026.19;;;8.08;57.23
21276;BME280;36472;52.170;20.884;2023-05-10T03:47:49;101033.06;;;8.10;56.42
21276;BME280;36472;52.170;20.884;2023-05-10T03:50:19;101032.00;;;8.14;56.95
21276;BME280;36472;52.170;20.884;2023-05-10T03:52:49;101030.09;;;8.18;54.66
21276;BME280;36472;52.170;20.884;2023-05-10T03:55:21;101028.41;;;8.17;54.29
21276;BME280;36472;52.170;20.884;2023-05-10T03:57:51;101029.88;;;8.22;54.87
21276;BME280;36472;52.170;20.884;2023-05-10T04:00:22;101024.59;;;8.24;54.10
21276;BME280;36472;52.170;20.884;2023-05-10T04:02:54;101026.19;;;8.27;54.22
21276;BME280;36472;52.170;20.884;2023-05-10T04:05:23;101027.91;;;8.28;54.85
21276;BME280;36472;52.170;20.884;2023-05-10T04:07:54;101029.25;;;8.36;53.64
21276;BME280;36472;52.170;20.884;2023-05-10T04:10:23;101038.59;;;8.42;53.44
21276;BME280;36472;52.170;20.884;2023-05-10T04:12:52;101040.19;;;8.46;53.66
21276;BME280;36472;52.170;20.884;2023-05-10T04:15:21;101038.41;;;8.47;54.12
21276;BME280;36472;52.170;20.884;2023-05-10T04:17:50;101033.75;;;8.53;53.89
21276;BME280;36472;52.170;20.884;2023-05-10T04:20:19;101035.22;;;8.59;53.21
21276;BME280;36472;52.170;20.884;2023-05-10T04:22:48;101039.50;;;8.61;53.04
21276;BME280;36472;52.170;20.884;2023-05-10T04:25:18;101041.53;;;8.74;52.49
21276;BME280;36472;52.170;20.884;2023-05-10T04:27:47;101035.38;;;8.75;52.61
21276;BME280;36472;52.170;20.884;2023-05-10T04:30:16;101036.00;;;8.80;52.18
21276;BME280;36472;52.170;20.884;2023-05-10T04:32:45;101045.41;;;8.84;51.75
21276;BME280;36472;52.170;20.884;2023-05-10T04:35:14;101036.25;;;8.93;52.46
21276;BME280;36472;52.170;20.884;2023-05-10T04:37:43;101036.81;;;8.99;51.75
21276;BME280;36472;52.170;20.884;2023-05-10T04:40:12;101039.22;;;9.04;51.47
21276;BME280;36472;52.170;20.884;2023-05-10T04:42:44;101036.06;;;9.15;51.59
21276;BME280;36472;52.170;20.884;2023-05-10T04:45:13;101041.78;;;9.23;51.65
21276;BME280;36472;52.170;20.884;2023-05-10T04:47:43;101044.03;;;9.31;51.04
21276;BME280;36472;52.170;20.884;2023-05-10T04:50:12;101042.94;;;9.35;51.01
21276;BME280;36472;52.170;20.884;2023-05-10T04:52:40;101046.94;;;9.42;50.85
21276;BME280;36472;52.170;20.884;2023-05-10T04:55:09;101037.63;;;9.54;51.42
21276;BME280;36472;52.170;20.884;2023-05-10T04:57:38;101040.72;;;9.62;50.88
21276;BME280;36472;52.170;20.884;2023-05-10T05:00:10;101039.16;;;9.58;50.90
21276;BME280;36472;52.170;20.884;2023-05-10T05:02:42;101040.16;;;9.73;50.42
21276;BME280;36472;52.170;20.884;2023-05-10T05:05:13;101038.59;;;9.86;49.85
21276;BME280;36472;52.170;20.884;2023-05-10T05:07:42;101047.59;;;9.98;49.96
21276;BME280;36472;52.170;20.884;2023-05-10T05:10:11;101042.72;;;10.08;50.24
21276;BME280;36472;52.170;20.884;2023-05-10T05:12:40;101039.53;;;10.19;49.54
21276;BME280;36472;52.170;20.884;2023-05-10T05:15:11;101041.34;;;10.34;49.96
21276;BME280;36472;52.170;20.884;2023-05-10T05:17:39;101034.84;;;10.41;48.94
21276;BME280;36472;52.170;20.884;2023-05-10T05:20:10;101045.63;;;10.53;48.75
21276;BME280;36472;52.170;20.884;2023-05-10T05:22:39;101038.31;;;10.58;48.74
21276;BME280;36472;52.170;20.884;2023-05-10T05:25:08;101045.00;;;10.79;48.77
21276;BME280;36472;52.170;20.884;2023-05-10T05:27:37;101047.63;;;10.95;48.05
21276;BME280;36472;52.170;20.884;2023-05-10T05:30:08;101036.28;;;11.25;48.13
21276;BME280;36472;52.170;20.884;2023-05-10T05:32:38;101042.28;;;11.57;47.85
21276;BME280;36472;52.170;20.884;2023-05-10T05:35:08;101027.38;;;11.87;46.47
21276;BME280;36472;52.170;20.884;2023-05-10T05:37:36;101038.22;;;12.11;45.32
21276;BME280;36472;52.170;20.884;2023-05-10T05:40:07;101037.84;;;12.31;45.42
21276;BME280;36472;52.170;20.884;2023-05-10T05:42:36;101035.72;;;12.65;44.88
21276;BME280;36472;52.170;20.884;2023-05-10T05:45:07;101043.56;;;12.94;44.46
21276;BME280;36472;52.170;20.884;2023-05-10T05:47:42;101041.63;;;13.10;43.40
21276;BME280;36472;52.170;20.884;2023-05-10T05:50:11;101040.78;;;13.23;43.73
21276;BME280;36472;52.170;20.884;2023-05-10T05:52:40;101041.75;;;13.62;43.58
21276;BME280;36472;52.170;20.884;2023-05-10T05:55:08;101039.97;;;13.88;42.30
21276;BME280;36472;52.170;20.884;2023-05-10T05:57:37;101037.94;;;13.92;42.23
21276;BME280;36472;52.170;20.884;2023-05-10T06:00:08;101036.25;;;14.16;42.23
21276;BME280;36472;52.170;20.884;2023-05-10T06:02:41;101038.13;;;14.40;41.27
21276;BME280;36472;52.170;20.884;2023-05-10T06:05:10;101040.84;;;14.64;41.27
21276;BME280;36472;52.170;20.884;2023-05-10T06:07:39;101038.09;;;14.90;41.05
21276;BME280;36472;52.170;20.884;2023-05-10T06:10:10;101036.97;;;15.17;40.25
21276;BME280;36472;52.170;20.884;2023-05-10T06:12:39;101042.44;;;15.26;39.55
21276;BME280;36472;52.170;20.884;2023-05-10T06:15:09;101055.56;;;15.28;39.76
21276;BME280;36472;52.170;20.884;2023-05-10T06:17:38;101043.88;;;15.19;39.33
21276;BME280;36472;52.170;20.884;2023-05-10T06:20:11;101042.28;;;15.17;39.51
21276;BME280;36472;52.170;20.884;2023-05-10T06:22:41;101046.69;;;15.29;39.88
21276;BME280;36472;52.170;20.884;2023-05-10T06:25:10;101044.44;;;15.47;39.31
21276;BME280;36472;52.170;20.884;2023-05-10T06:27:40;101040.47;;;15.52;39.20
21276;BME280;36472;52.170;20.884;2023-05-10T06:30:10;101040.78;;;15.72;38.97
21276;BME280;36472;52.170;20.884;2023-05-10T06:32:41;101042.63;;;15.94;37.88
21276;BME280;36472;52.170;20.884;2023-05-10T06:35:12;101043.75;;;16.14;38.42
21276;BME280;36472;52.170;20.884;2023-05-10T06:37:42;101046.00;;;16.30;37.86
21276;BME280;36472;52.170;20.884;2023-05-10T06:40:12;101040.19;;;16.48;37.08
21276;BME280;36472;52.170;20.884;2023-05-10T06:42:41;101042.25;;;16.44;37.19
21276;BME280;36472;52.170;20.884;2023-05-10T06:45:11;101038.88;;;16.53;36.94
21276;BME280;36472;52.170;20.884;2023-05-10T06:47:41;101036.78;;;16.68;37.61
21276;BME280;36472;52.170;20.884;2023-05-10T06:50:11;101046.78;;;16.87;36.18
21276;BME280;36472;52.170;20.884;2023-05-10T06:52:40;101041.22;;;17.23;36.13
21276;BME280;36472;52.170;20.884;2023-05-10T06:55:10;101035.47;;;17.38;35.53
21276;BME280;36472;52.170;20.884;2023-05-10T06:57:39;101044.63;;;17.46;35.18
21276;BME280;36472;52.170;20.884;2023-05-10T07:00:09;101024.06;;;17.48;34.52
21276;BME280;36472;52.170;20.884;2023-05-10T07:02:38;101038.41;;;17.35;35.06
21276;BME280;36472;52.170;20.884;2023-05-10T07:05:08;101034.63;;;17.38;35.46
21276;BME280;36472;52.170;20.884;2023-05-10T07:07:38;101025.56;;;17.62;34.42
21276;BME280;36472;52.170;20.884;2023-05-10T07:10:08;101031.31;;;17.67;33.41
21276;BME280;36472;52.170;20.884;2023-05-10T07:12:38;101028.13;;;17.73;33.90
21276;BME280;36472;52.170;20.884;2023-05-10T07:15:08;101029.38;;;17.69;33.42
21276;BME280;36472;52.170;20.884;2023-05-10T07:17:37;101032.63;;;17.51;33.74
21276;BME280;36472;52.170;20.884;2023-05-10T07:20:10;101027.81;;;17.45;33.28
21276;BME280;36472;52.170;20.884;2023-05-10T07:22:40;101025.34;;;17.53;33.73
21276;BME280;36472;52.170;20.884;2023-05-10T07:25:09;101026.31;;;17.73;32.90
21276;BME280;36472;52.170;20.884;2023-05-10T07:27:39;101026.47;;;17.72;32.43
21276;BME280;36472;52.170;20.884;2023-05-10T07:30:09;101028.47;;;17.37;31.92
21276;BME280;36472;52.170;20.884;2023-05-10T07:32:38;101038.00;;;17.40;30.46
21276;BME280;36472;52.170;20.884;2023-05-10T07:35:09;101044.91;;;17.10;30.76
21276;BME280;36472;52.170;20.884;2023-05-10T07:37:39;101036.16;;;17.19;30.91
21276;BME280;36472;52.170;20.884;2023-05-10T07:40:09;101040.41;;;17.22;31.92
21276;BME280;36472;52.170;20.884;2023-05-10T07:42:38;101041.34;;;17.42;31.47
21276;BME280;36472;52.170;20.884;2023-05-10T07:45:09;101033.38;;;17.42;29.72
21276;BME280;36472;52.170;20.884;2023-05-10T07:47:38;101035.22;;;17.42;29.29
21276;BME280;36472;52.170;20.884;2023-05-10T07:50:08;101030.50;;;17.66;29.69
21276;BME280;36472;52.170;20.884;2023-05-10T07:52:37;101020.06;;;17.84;28.27
21276;BME280;36472;52.170;20.884;2023-05-10T07:55:09;101026.47;;;17.72;28.42
21276;BME280;36472;52.170;20.884;2023-05-10T07:57:38;101015.38;;;17.67;27.61
21276;BME280;36472;52.170;20.884;2023-05-10T08:00:08;101024.59;;;17.42;27.64
21276;BME280;36472;52.170;20.884;2023-05-10T08:02:41;101021.38;;;17.27;28.46
21276;BME280;36472;52.170;20.884;2023-05-10T08:05:10;101019.44;;;17.71;29.07
21276;BME280;36472;52.170;20.884;2023-05-10T08:07:39;101013.78;;;17.85;28.07
21276;BME280;36472;52.170;20.884;2023-05-10T08:10:10;101018.75;;;17.69;27.09
21276;BME280;36472;52.170;20.884;2023-05-10T08:12:39;101022.84;;;17.52;27.74
21276;BME280;36472;52.170;20.884;2023-05-10T08:15:09;101018.09;;;17.76;27.34
21276;BME280;36472;52.170;20.884;2023-05-10T08:17:38;101020.19;;;17.52;28.19
21276;BME280;36472;52.170;20.884;2023-05-10T08:20:08;101024.00;;;17.38;27.78
21276;BME280;36472;52.170;20.884;2023-05-10T08:22:37;101008.97;;;17.48;27.17
21276;BME280;36472;52.170;20.884;2023-05-10T08:25:07;101019.28;;;17.42;28.51
21276;BME280;36472;52.170;20.884;2023-05-10T08:27:37;101003.91;;;17.45;28.53
21276;BME280;36472;52.170;20.884;2023-05-10T08:30:08;101014.66;;;17.65;28.61
21276;BME280;36472;52.170;20.884;2023-05-10T08:32:37;101012.84;;;17.65;28.83
21276;BME280;36472;52.170;20.884;2023-05-10T08:35:06;101008.94;;;17.69;28.63
21276;BME280;36472;52.170;20.884;2023-05-10T08:37:35;101007.97;;;17.91;29.77
21276;BME280;36472;52.170;20.884;2023-05-10T08:40:06;101015.59;;;18.06;28.93
21276;BME280;36472;52.170;20.884;2023-05-10T08:42:40;101017.13;;;17.99;29.13
21276;BME280;36472;52.170;20.884;2023-05-10T08:45:12;101019.50;;;18.02;29.41
21276;BME280;36472;52.170;20.884;2023-05-10T08:47:42;101023.31;;;18.09;28.95
21276;BME280;36472;52.170;20.884;2023-05-10T08:50:12;101026.06;;;17.98;29.54
21276;BME280;36472;52.170;20.884;2023-05-10T08:52:42;101019.41;;;18.13;27.80
21276;BME280;36472;52.170;20.884;2023-05-10T08:55:11;101024.22;;;18.29;28.94
21276;BME280;36472;52.170;20.884;2023-05-10T08:57:42;101019.44;;;18.32;27.98
21276;BME280;36472;52.170;20.884;2023-05-10T09:00:12;101018.50;;;18.34;27.52
21276;BME280;36472;52.170;20.884;2023-05-10T09:02:43;101013.59;;;18.39;28.44
21276;BME280;36472;52.170;20.884;2023-05-10T09:05:13;101011.84;;;18.18;28.48
21276;BME280;36472;52.170;20.884;2023-05-10T09:07:44;101004.78;;;18.48;27.42
21276;BME280;36472;52.170;20.884;2023-05-10T09:10:15;101005.41;;;18.71;28.92
21276;BME280;36472;52.170;20.884;2023-05-10T09:12:46;101003.44;;;18.73;28.17
21276;BME280;36472;52.170;20.884;2023-05-10T09:15:16;100998.56;;;18.88;28.20
21276;BME280;36472;52.170;20.884;2023-05-10T09:17:48;100991.84;;;18.84;27.68
21276;BME280;36472;52.170;20.884;2023-05-10T09:20:17;101006.44;;;19.19;28.02
21276;BME280;36472;52.170;20.884;2023-05-10T09:22:46;100990.16;;;19.22;27.91
21276;BME280;36472;52.170;20.884;2023-05-10T09:25:16;100997.69;;;19.36;27.26
21276;BME280;36472;52.170;20.884;2023-05-10T09:27:48;100988.97;;;19.54;28.23
21276;BME280;36472;52.170;20.884;2023-05-10T09:30:24;100991.00;;;20.17;26.88
21276;BME280;36472;52.170;20.884;2023-05-10T09:32:55;100992.13;;;20.42;25.52
21276;BME280;36472;52.170;20.884;2023-05-10T09:35:27;101001.41;;;20.66;25.22
21276;BME280;36472;52.170;20.884;2023-05-10T09:37:59;100984.25;;;20.86;26.07
21276;BME280;36472;52.170;20.884;2023-05-10T09:40:30;100993.28;;;20.58;26.36
21276;BME280;36472;52.170;20.884;2023-05-10T09:43:03;100997.44;;;21.06;26.90
21276;BME280;36472;52.170;20.884;2023-05-10T09:45:35;100993.50;;;21.36;25.98
21276;BME280;36472;52.170;20.884;2023-05-10T09:48:06;100981.25;;;21.25;25.00
21276;BME280;36472;52.170;20.884;2023-05-10T09:50:35;100987.34;;;21.18;26.18
21276;BME280;36472;52.170;20.884;2023-05-10T09:53:04;100987.06;;;20.85;26.00
21276;BME280;36472;52.170;20.884;2023-05-10T09:55:41;100979.03;;;20.49;25.66
21276;BME280;36472;52.170;20.884;2023-05-10T09:58:14;100987.34;;;21.18;25.88
21276;BME280;36472;52.170;20.884;2023-05-10T10:00:45;100985.84;;;21.41;25.05
21276;BME280;36472;52.170;20.884;2023-05-10T10:03:18;100980.19;;;21.97;23.94
21276;BME280;36472;52.170;20.884;2023-05-10T10:05:48;100975.19;;;22.02;23.89
21276;BME280;36472;52.170;20.884;2023-05-10T10:08:18;100980.34;;;21.95;23.73
21276;BME280;36472;52.170;20.884;2023-05-10T10:10:47;100971.69;;;22.10;24.09
21276;BME280;36472;52.170;20.884;2023-05-10T10:13:20;100965.31;;;22.53;24.28
21276;BME280;36472;52.170;20.884;2023-05-10T10:15:50;100957.97;;;22.88;24.06
21276;BME280;36472;52.170;20.884;2023-05-10T10:18:20;100959.63;;;23.47;23.09
21276;BME280;36472;52.170;20.884;2023-05-10T10:20:54;100953.25;;;24.04;21.79
21276;BME280;36472;52.170;20.884;2023-05-10T10:23:25;100954.69;;;23.83;21.52
21276;BME280;36472;52.170;20.884;2023-05-10T10:25:55;100951.59;;;23.95;22.88
21276;BME280;36472;52.170;20.884;2023-05-10T10:28:38;100951.47;;;23.24;22.52
21276;BME280;36472;52.170;20.884;2023-05-10T10:31:23;100944.56;;;24.02;22.99
21276;BME280;36472;52.170;20.884;2023-05-10T10:34:03;100951.81;;;24.48;21.97
21276;BME280;36472;52.170;20.884;2023-05-10T10:36:40;100944.28;;;24.51;21.89
21276;BME280;36472;52.170;20.884;2023-05-10T10:39:11;100941.88;;;25.17;22.56
21276;BME280;36472;52.170;20.884;2023-05-10T10:41:49;100957.31;;;24.86;22.20
21276;BME280;36472;52.170;20.884;2023-05-10T10:44:36;100938.72;;;23.98;21.78
21276;BME280;36472;52.170;20.884;2023-05-10T10:47:24;100937.03;;;23.97;23.04
21276;BME280;36472;52.170;20.884;2023-05-10T10:50:05;100933.50;;;23.97;22.86
21276;BME280;36472;52.170;20.884;2023-05-10T10:52:35;100934.03;;;23.92;23.10
21276;BME280;36472;52.170;20.884;2023-05-10T10:55:07;100938.47;;;24.39;22.80
21276;BME280;36472;52.170;20.884;2023-05-10T10:57:49;100935.69;;;24.56;22.47
21276;BME280;36472;52.170;20.884;2023-05-10T11:00:27;100935.16;;;24.60;21.98
21276;BME280;36472;52.170;20.884;2023-05-10T11:03:00;100921.19;;;23.63;22.23
21276;BME280;36472;52.170;20.884;2023-05-10T11:05:38;100939.50;;;23.51;23.26
21276;BME280;36472;52.170;20.884;2023-05-10T11:08:15;100930.97;;;23.47;22.70
21276;BME280;36472;52.170;20.884;2023-05-10T11:11:02;100922.63;;;23.18;23.30
21276;BME280;36472;52.170;20.884;2023-05-10T11:13:34;100927.81;;;22.70;24.16
21276;BME280;36472;52.170;20.884;2023-05-10T11:16:15;100925.16;;;22.78;24.09
21276;BME280;36472;52.170;20.884;2023-05-10T11:18:57;100927.16;;;22.43;24.22
21276;BME280;36472;52.170;20.884;2023-05-10T11:21:26;100920.19;;;22.16;24.14
21276;BME280;36472;52.170;20.884;2023-05-10T11:23:57;100918.44;;;22.33;24.78
21276;BME280;36472;52.170;20.884;2023-05-10T11:26:31;100916.94;;;22.47;25.25
21276;BME280;36472;52.170;20.884;2023-05-10T11:29:01;100915.59;;;22.51;25.52
21276;BME280;36472;52.170;20.884;2023-05-10T11:31:34;100905.53;;;22.53;24.91
21276;BME280;36472;52.170;20.884;2023-05-10T11:34:03;100906.22;;;22.38;24.96
21276;BME280;36472;52.170;20.884;2023-05-10T11:36:34;100909.41;;;22.42;25.10
21276;BME280;36472;52.170;20.884;2023-05-10T11:39:05;100914.09;;;22.65;23.62
21276;BME280;36472;52.170;20.884;2023-05-10T11:41:34;100890.78;;;22.24;24.25
21276;BME280;36472;52.170;20.884;2023-05-10T11:44:03;100903.06;;;22.43;24.50
21276;BME280;36472;52.170;20.884;2023-05-10T11:46:33;100908.91;;;22.96;23.89
21276;BME280;36472;52.170;20.884;2023-05-10T11:49:02;100901.03;;;23.83;23.64
21276;BME280;36472;52.170;20.884;2023-05-10T11:51:34;100902.25;;;24.04;23.41
21276;BME280;36472;52.170;20.884;2023-05-10T11:54:07;100899.63;;;23.96;23.33
21276;BME280;36472;52.170;20.884;2023-05-10T11:56:37;100906.84;;;24.18;23.04
21276;BME280;36472;52.170;20.884;2023-05-10T11:59:06;100906.03;;;23.78;22.85
21276;BME280;36472;52.170;20.884;2023-05-10T12:01:37;100906.22;;;23.21;24.23
21276;BME280;36472;52.170;20.884;2023-05-10T12:04:06;100898.69;;;22.42;23.99
21276;BME280;36472;52.170;20.884;2023-05-10T12:06:41;100891.44;;;22.18;25.44
21276;BME280;36472;52.170;20.884;2023-05-10T12:09:09;100891.72;;;21.29;25.84
21276;BME280;36472;52.170;20.884;2023-05-10T12:11:40;100889.34;;;21.00;26.61
21276;BME280;36472;52.170;20.884;2023-05-10T12:14:11;100882.00;;;20.76;26.60
21276;BME280;36472;52.170;20.884;2023-05-10T12:16:43;100899.41;;;20.62;27.10
21276;BME280;36472;52.170;20.884;2023-05-10T12:19:12;100901.75;;;20.47;27.02
21276;BME280;36472;52.170;20.884;2023-05-10T12:21:47;100890.94;;;20.03;26.65
21276;BME280;36472;52.170;20.884;2023-05-10T12:24:16;100891.34;;;20.08;27.54
21276;BME280;36472;52.170;20.884;2023-05-10T12:26:45;100888.91;;;19.97;28.14
21276;BME280;36472;52.170;20.884;2023-05-10T12:29:33;100896.66;;;19.90;28.32
21276;BME280;36472;52.170;20.884;2023-05-10T12:32:04;100886.56;;;19.84;28.19
21276;BME280;36472;52.170;20.884;2023-05-10T12:34:35;100887.66;;;19.54;27.80
21276;BME280;36472;52.170;20.884;2023-05-10T12:37:06;100881.09;;;19.48;27.91
21276;BME280;36472;52.170;20.884;2023-05-10T12:39:39;100874.41;;;19.34;28.23
21276;BME280;36472;52.170;20.884;2023-05-10T12:42:10;100872.56;;;19.44;28.08
21276;BME280;36472;52.170;20.884;2023-05-10T12:44:39;100883.50;;;19.41;27.42
21276;BME280;36472;52.170;20.884;2023-05-10T12:47:09;100878.31;;;19.40;27.75
21276;BME280;36472;52.170;20.884;2023-05-10T12:49:38;100881.53;;;19.43;28.55
21276;BME280;36472;52.170;20.884;2023-05-10T12:52:07;100877.00;;;19.54;28.00
21276;BME280;36472;52.170;20.884;2023-05-10T12:54:36;100877.59;;;19.48;28.15
21276;BME280;36472;52.170;20.884;2023-05-10T12:57:05;100874.28;;;19.36;29.11
21276;BME280;36472;52.170;20.884;2023-05-10T12:59:34;100874.72;;;19.21;28.60
21276;BME280;36472;52.170;20.884;2023-05-10T13:02:06;100876.00;;;19.27;28.42
21276;BME280;36472;52.170;20.884;2023-05-10T13:04:36;100868.69;;;19.29;28.20